createdAt,value
2022-10-13T00:02:05.796Z,43.90
2022-10-13T00:05:08.954Z,45.63
2022-10-13T00:08:13.199Z,47.07
2022-10-13T00:11:18.837Z,50.42
2022-10-13T00:14:21.471Z,44.78
2022-10-13T00:17:24.406Z,45.67
2022-10-13T00:20:26.885Z,40.77
2022-10-13T00:23:29.461Z,43.67
2022-10-13T00:26:32.176Z,42.70
2022-10-13T00:29:34.755Z,44.85
2022-10-13T00:32:37.399Z,39.95
2022-10-13T00:35:48.025Z,42.20
2022-10-13T00:38:51.622Z,40.30
2022-10-13T00:41:54.624Z,44.45
2022-10-13T00:45:03.891Z,46.05
2022-10-13T00:48:09.193Z,44.90
2022-10-13T00:51:13.318Z,42.20
2022-10-13T00:54:22.068Z,43.10
2022-10-13T00:57:24.677Z,44.80
2022-10-13T01:00:27.317Z,41.15
2022-10-13T01:03:30.368Z,42.67
2022-10-13T01:06:33.252Z,42.53
2022-10-13T01:09:38.592Z,45.13
2022-10-13T01:13:00.531Z,43.60
2022-10-13T01:16:18.289Z,38.67
2022-10-13T01:19:30.902Z,39.35
2022-10-13T01:22:51.814Z,43.45
2022-10-13T01:26:35.935Z,35.97
2022-10-13T01:29:56.667Z,41.55
2022-10-13T01:33:10.205Z,42.97
2022-10-13T01:36:21.627Z,40.33
2022-10-13T01:39:50.482Z,45.22
2022-10-13T01:43:02.300Z,41.37
2022-10-13T01:46:11.386Z,39.72
2022-10-13T01:49:17.316Z,40.30
2022-10-13T01:52:21.550Z,43.50
2022-10-13T01:55:24.548Z,39.72
2022-10-13T01:58:29.647Z,37.17
2022-10-13T02:01:56.454Z,44.00
2022-10-13T02:05:25.409Z,39.83
2022-10-13T02:08:49.354Z,36.03
2022-10-13T02:11:57.511Z,39.38
2022-10-13T02:15:01.331Z,34.77
2022-10-13T02:18:04.262Z,36.05
2022-10-13T02:21:06.804Z,33.33
2022-10-13T02:24:09.773Z,32.45
2022-10-13T02:27:13.060Z,33.28
2022-10-13T02:30:27.038Z,34.80
2022-10-13T02:33:29.888Z,38.17
2022-10-13T02:36:32.382Z,33.47
2022-10-13T02:39:35.002Z,35.58
2022-10-13T02:42:37.585Z,31.13
2022-10-13T02:45:40.210Z,35.47
2022-10-13T02:48:43.045Z,38.15
2022-10-13T02:51:45.681Z,37.95
2022-10-13T02:54:48.346Z,38.22
2022-10-13T02:57:50.928Z,39.00
2022-10-13T03:00:53.492Z,36.10
2022-10-13T03:03:56.184Z,37.38
2022-10-13T03:07:00.213Z,38.00
2022-10-13T03:10:03.255Z,36.65
2022-10-13T03:13:06.035Z,36.30
2022-10-13T03:16:11.673Z,39.90
2022-10-13T03:19:14.187Z,38.22
2022-10-13T03:22:16.989Z,36.33
2022-10-13T03:25:19.920Z,38.35
2022-10-13T03:28:23.126Z,37.47
2022-10-13T03:31:25.803Z,38.80
2022-10-13T03:34:30.297Z,37.33
2022-10-13T03:37:32.884Z,34.70
2022-10-13T03:40:38.631Z,39.83
2022-10-13T03:43:42.273Z,33.50
2022-10-13T03:46:44.908Z,31.40
2022-10-13T03:49:47.497Z,32.60
2022-10-13T03:52:50.025Z,34.97
2022-10-13T03:55:54.712Z,36.95
2022-10-13T03:58:59.569Z,35.75
2022-10-13T04:02:02.154Z,36.50
2022-10-13T04:05:05.101Z,33.17
2022-10-13T04:08:07.845Z,34.65
2022-10-13T04:11:12.672Z,33.47
2022-10-13T04:14:16.278Z,31.97
2022-10-13T04:17:18.987Z,35.90
2022-10-13T04:20:21.766Z,41.10
2022-10-13T04:23:24.679Z,34.95
2022-10-13T04:26:29.237Z,30.73
2022-10-13T04:29:31.997Z,35.90
2022-10-13T04:32:34.596Z,30.67
2022-10-13T04:35:41.638Z,32.35
2022-10-13T04:38:44.563Z,31.58
2022-10-13T04:41:47.517Z,35.85
2022-10-13T04:44:50.246Z,38.30
2022-10-13T04:47:52.831Z,36.33
2022-10-13T04:51:12.554Z,34.10
2022-10-13T04:54:18.701Z,39.97
2022-10-13T04:57:21.545Z,35.17
2022-10-13T05:00:24.309Z,34.53
2022-10-13T05:03:28.534Z,32.53
2022-10-13T05:06:41.622Z,30.00
2022-10-13T05:09:54.132Z,31.52
2022-10-13T05:12:59.993Z,31.62
2022-10-13T05:16:10.635Z,35.53
2022-10-13T05:19:13.434Z,30.90
2022-10-13T05:22:16.033Z,36.17
2022-10-13T05:25:18.779Z,33.15
2022-10-13T05:28:21.723Z,37.92
2022-10-13T05:31:26.092Z,33.47
2022-10-13T05:34:32.850Z,34.87
2022-10-13T05:37:35.501Z,30.37
2022-10-13T05:40:38.042Z,35.10
2022-10-13T05:43:43.644Z,32.65
2022-10-13T05:46:46.174Z,31.90
2022-10-13T05:49:51.851Z,30.90
2022-10-13T05:52:54.496Z,30.95
2022-10-13T05:55:58.719Z,32.17
2022-10-13T05:59:03.744Z,36.22
2022-10-13T06:02:08.113Z,29.10
2022-10-13T06:05:19.085Z,33.70
2022-10-13T06:08:21.744Z,34.60
2022-10-13T06:11:24.243Z,36.88
2022-10-13T06:14:30.043Z,30.50
2022-10-13T06:17:32.649Z,34.80
2022-10-13T06:20:35.296Z,35.13
2022-10-13T06:23:37.836Z,36.75
2022-10-13T06:26:43.716Z,34.55
2022-10-13T06:29:46.534Z,30.67
2022-10-13T06:32:49.203Z,33.43
2022-10-13T06:35:52.838Z,35.97
2022-10-13T06:38:55.431Z,39.28
2022-10-13T06:41:58.292Z,43.13
2022-10-13T06:45:00.928Z,43.78
2022-10-13T06:48:03.629Z,44.72
2022-10-13T06:51:08.478Z,43.07
2022-10-13T06:54:12.291Z,40.67
2022-10-13T06:57:15.073Z,36.20
2022-10-13T07:00:18.057Z,35.30
2022-10-13T07:03:21.393Z,34.28
2022-10-13T07:06:24.101Z,34.73
2022-10-13T07:09:27.030Z,30.23
2022-10-13T07:12:29.742Z,30.42
2022-10-13T07:15:32.303Z,31.90
2022-10-13T07:18:35.112Z,35.50
2022-10-13T07:21:37.708Z,35.20
2022-10-13T07:24:40.553Z,30.88
2022-10-13T07:27:44.326Z,26.90
2022-10-13T07:30:46.852Z,29.98
2022-10-13T07:33:51.337Z,25.48
2022-10-13T07:36:54.029Z,23.80
2022-10-13T07:39:56.586Z,27.58
2022-10-13T07:42:59.194Z,29.73
2022-10-13T07:46:07.069Z,28.05
2022-10-13T07:49:12.408Z,25.45
2022-10-13T07:52:18.575Z,26.73
2022-10-13T07:55:21.506Z,25.00
2022-10-13T07:58:24.068Z,27.30
2022-10-13T08:01:26.777Z,25.35
2022-10-13T08:04:33.462Z,26.67
2022-10-13T08:07:38.270Z,26.23
2022-10-13T08:10:41.013Z,31.05
2022-10-13T08:13:47.199Z,25.17
2022-10-13T08:16:52.977Z,22.30
2022-10-13T08:19:56.549Z,25.95
2022-10-13T08:22:59.192Z,28.23
2022-10-13T08:26:01.954Z,29.52
2022-10-13T08:32:27.510Z,27.35
2022-10-13T08:35:34.956Z,30.62
2022-10-13T08:38:37.627Z,25.20
2022-10-13T08:41:44.319Z,22.85
2022-10-13T08:48:20.019Z,22.85
2022-10-13T08:51:22.654Z,23.67
2022-10-13T08:54:26.102Z,23.90
2022-10-13T08:57:28.882Z,22.45
2022-10-13T09:00:31.900Z,21.15
2022-10-13T09:03:49.218Z,22.17
2022-10-13T09:07:10.308Z,21.25
2022-10-13T09:10:15.700Z,22.10
2022-10-13T09:13:19.396Z,19.45
2022-10-13T09:16:48.188Z,20.98
2022-10-13T09:20:03.726Z,21.10
2022-10-13T09:23:20.265Z,22.02
2022-10-13T09:26:26.143Z,18.63
2022-10-13T09:29:28.800Z,18.92
2022-10-13T09:32:35.552Z,24.77
2022-10-13T09:35:50.319Z,21.40
2022-10-13T09:39:16.538Z,24.37
2022-10-13T09:42:23.441Z,34.07
2022-10-13T09:45:27.407Z,21.70
2022-10-13T09:48:33.722Z,23.42
2022-10-13T09:51:42.176Z,24.30
2022-10-13T09:54:50.307Z,22.65
2022-10-13T09:57:53.596Z,24.93
2022-10-13T10:00:57.977Z,19.80
2022-10-13T10:04:08.842Z,22.42
2022-10-13T10:07:22.129Z,21.77
2022-10-13T10:10:32.990Z,29.55
2022-10-13T10:13:36.510Z,23.47
2022-10-13T10:16:44.955Z,22.15
2022-10-13T10:20:02.398Z,21.52
2022-10-13T10:23:11.671Z,26.48
2022-10-13T10:26:23.512Z,25.50
2022-10-13T10:29:48.900Z,22.90
2022-10-13T10:33:15.306Z,25.25
2022-10-13T10:36:36.905Z,20.65
2022-10-13T10:39:52.933Z,21.15
2022-10-13T10:43:42.093Z,24.12
2022-10-13T10:46:47.350Z,21.77
2022-10-13T10:49:52.205Z,21.45
2022-10-13T10:53:14.762Z,22.30
2022-10-13T10:56:20.334Z,20.80
2022-10-13T10:59:32.588Z,19.48
2022-10-13T11:02:38.254Z,20.90
2022-10-13T11:06:01.647Z,18.17
2022-10-13T11:09:05.671Z,20.98
2022-10-13T11:12:20.778Z,20.60
2022-10-13T11:15:48.592Z,23.40
2022-10-13T11:19:05.837Z,22.43
2022-10-13T11:22:12.729Z,20.50
2022-10-13T11:25:41.784Z,20.58
2022-10-13T11:28:46.025Z,18.95
2022-10-13T11:31:52.541Z,20.05
2022-10-13T11:35:10.149Z,20.27
2022-10-13T11:38:28.923Z,19.37
2022-10-13T11:41:39.820Z,19.23
2022-10-13T11:44:58.497Z,16.90
2022-10-13T11:48:29.699Z,19.05
2022-10-13T11:52:06.012Z,20.67
2022-10-13T11:55:51.075Z,18.65
2022-10-13T11:58:54.435Z,18.52
2022-10-13T12:02:06.390Z,18.77
2022-10-13T12:05:27.964Z,21.90
2022-10-13T12:08:33.643Z,18.53
2022-10-13T12:11:38.180Z,18.40
2022-10-13T12:14:45.452Z,22.48
2022-10-13T12:17:47.956Z,20.83
2022-10-13T12:20:59.335Z,18.33
2022-10-13T12:24:09.919Z,19.37
2022-10-13T12:27:21.885Z,18.25
2022-10-13T12:30:37.251Z,20.15
2022-10-13T12:33:39.935Z,18.05
2022-10-13T12:36:43.335Z,18.95
2022-10-13T12:39:46.492Z,21.17
2022-10-13T12:42:49.880Z,20.23
2022-10-13T12:45:52.809Z,25.85
2022-10-13T12:49:04.610Z,24.67
2022-10-13T12:52:14.746Z,21.25
2022-10-13T12:55:18.951Z,18.13
2022-10-13T12:58:33.765Z,21.65
2022-10-13T13:01:36.348Z,19.95
2022-10-13T13:04:41.683Z,16.73
2022-10-13T13:07:52.677Z,18.37
2022-10-13T13:11:00.761Z,23.23
2022-10-13T13:14:33.532Z,18.80
2022-10-13T13:17:57.198Z,18.95
2022-10-13T13:20:59.311Z,19.70
2022-10-13T13:24:04.283Z,20.52
2022-10-13T13:27:35.148Z,25.63
2022-10-13T13:30:38.834Z,18.12
2022-10-13T13:33:41.670Z,16.95
2022-10-13T13:36:44.288Z,20.05
2022-10-13T13:39:47.684Z,17.08
2022-10-13T13:42:50.596Z,19.43
2022-10-13T13:45:53.254Z,26.80
2022-10-13T13:48:56.022Z,21.62
2022-10-13T13:51:58.758Z,20.70
2022-10-13T13:55:01.406Z,21.10
2022-10-13T13:58:03.993Z,21.00
2022-10-13T14:01:07.026Z,19.15
2022-10-13T14:04:09.684Z,19.33
2022-10-13T14:07:12.810Z,18.30
2022-10-13T14:10:15.482Z,18.12
2022-10-13T14:13:18.610Z,19.60
2022-10-13T14:16:21.205Z,17.23
2022-10-13T14:19:24.058Z,22.67
2022-10-13T14:22:26.970Z,23.05
2022-10-13T14:25:29.788Z,17.45
2022-10-13T14:28:32.789Z,20.20
2022-10-13T14:31:35.508Z,30.27
2022-10-13T14:34:38.374Z,18.45
2022-10-13T14:37:41.053Z,22.40
2022-10-13T14:40:43.525Z,17.90
2022-10-13T14:43:46.130Z,18.50
2022-10-13T14:46:48.823Z,20.33
2022-10-13T14:49:51.503Z,17.80
2022-10-13T14:52:54.229Z,17.87
2022-10-13T14:55:56.901Z,18.65
2022-10-13T14:59:02.137Z,17.00
2022-10-13T15:02:04.961Z,19.62
2022-10-13T15:05:07.961Z,19.45
2022-10-13T15:08:10.580Z,22.65
2022-10-13T15:11:13.587Z,23.80
2022-10-13T15:14:16.292Z,18.53
2022-10-13T15:17:19.004Z,16.35
2022-10-13T15:20:21.745Z,32.65
2022-10-13T15:23:24.556Z,43.17
2022-10-13T15:26:27.199Z,18.25
2022-10-13T15:29:30.403Z,19.23
2022-10-13T15:32:33.058Z,20.08
2022-10-13T15:35:35.655Z,18.15
2022-10-13T15:38:38.188Z,19.42
2022-10-13T15:41:41.131Z,17.80
2022-10-13T15:48:07.988Z,23.05
2022-10-13T15:51:19.749Z,19.15
2022-10-13T15:54:22.636Z,20.58
2022-10-13T15:57:25.243Z,16.02
2022-10-13T16:00:27.982Z,16.13
2022-10-13T16:03:32.047Z,18.80
2022-10-13T16:06:35.998Z,21.37
2022-10-13T16:09:38.687Z,32.28
2022-10-13T16:12:46.804Z,26.40
2022-10-13T16:15:58.828Z,25.40
2022-10-13T16:19:01.687Z,61.90
2022-10-13T16:22:04.357Z,41.20
2022-10-13T16:25:07.615Z,26.10
2022-10-13T16:28:10.409Z,23.38
2022-10-13T16:31:15.765Z,22.93
2022-10-13T16:34:18.671Z,18.42
2022-10-13T16:37:21.555Z,37.92
2022-10-13T16:40:24.505Z,32.38
2022-10-13T16:43:27.186Z,29.67
2022-10-13T16:46:29.979Z,26.47
2022-10-13T16:49:33.982Z,23.70
2022-10-13T16:52:37.629Z,19.00
2022-10-13T16:55:41.282Z,23.83
2022-10-13T16:58:45.392Z,30.95
2022-10-13T17:01:49.033Z,33.97
2022-10-13T17:04:52.068Z,28.67
2022-10-13T17:07:54.719Z,29.25
2022-10-13T17:10:59.284Z,25.62
2022-10-13T17:14:02.244Z,21.08
2022-10-13T17:17:08.166Z,25.27
2022-10-13T17:20:13.206Z,38.22
2022-10-13T17:23:17.327Z,24.23
2022-10-13T17:26:21.317Z,24.95
2022-10-13T17:29:24.038Z,25.15
2022-10-13T17:32:26.805Z,28.10
2022-10-13T17:35:31.526Z,25.27
2022-10-13T17:38:34.692Z,26.98
2022-10-13T17:41:37.687Z,28.80
2022-10-13T17:44:40.638Z,26.10
2022-10-13T17:47:50.213Z,25.70
2022-10-13T17:50:52.867Z,27.30
2022-10-13T17:53:55.872Z,28.42
2022-10-13T17:56:58.552Z,27.55
2022-10-13T18:00:01.294Z,26.42
2022-10-13T18:03:04.397Z,27.43
2022-10-13T18:06:08.222Z,27.58
2022-10-13T18:09:20.147Z,30.98
2022-10-13T18:12:23.619Z,30.45
2022-10-13T18:15:26.354Z,30.95
2022-10-13T18:18:29.193Z,61.87
2022-10-13T18:21:32.535Z,46.60
2022-10-13T18:24:35.776Z,42.75
2022-10-13T18:27:38.442Z,50.03
2022-10-13T18:30:41.658Z,40.28
2022-10-13T18:33:44.791Z,40.27
2022-10-13T18:36:49.856Z,43.13
2022-10-13T18:39:52.566Z,40.45
2022-10-13T18:42:55.336Z,42.33
2022-10-13T18:46:02.178Z,45.47
2022-10-13T18:49:06.173Z,38.70
2022-10-13T18:52:09.027Z,45.28
2022-10-13T18:55:12.544Z,40.72
2022-10-13T18:58:15.282Z,39.55
2022-10-13T19:01:20.552Z,46.03
2022-10-13T19:04:23.262Z,43.87
2022-10-13T19:07:25.942Z,42.03
2022-10-13T19:10:29.527Z,37.78
2022-10-13T19:13:33.574Z,40.42
2022-10-13T19:16:38.499Z,44.95
2022-10-13T19:19:41.702Z,41.37
2022-10-13T19:22:44.441Z,51.33
2022-10-13T19:25:47.315Z,39.28
2022-10-13T19:28:54.065Z,42.88
2022-10-13T19:31:57.072Z,46.75
2022-10-13T19:34:59.780Z,39.07
2022-10-13T19:38:02.356Z,41.92
2022-10-13T19:41:06.953Z,44.78
2022-10-13T19:44:09.637Z,44.58
2022-10-13T19:47:12.363Z,39.80
2022-10-13T19:50:15.514Z,42.90
2022-10-13T19:53:18.619Z,41.55
2022-10-13T19:56:26.319Z,44.28
2022-10-13T19:59:29.073Z,41.72
2022-10-13T20:02:31.688Z,54.35
2022-10-13T20:05:34.363Z,48.40
2022-10-13T20:08:37.238Z,50.15
2022-10-13T20:11:40.158Z,42.97
2022-10-13T20:14:42.742Z,41.03
2022-10-13T20:17:45.451Z,44.08
2022-10-13T20:20:47.993Z,43.63
2022-10-13T20:23:50.897Z,44.05
2022-10-13T20:26:53.653Z,49.15
2022-10-13T20:29:56.155Z,41.67
2022-10-13T20:32:58.907Z,43.30
2022-10-13T20:36:02.973Z,51.33
2022-10-13T20:39:05.642Z,43.97
2022-10-13T20:42:08.203Z,38.70
2022-10-13T20:45:10.830Z,40.50
2022-10-13T20:48:13.548Z,43.57
2022-10-13T20:51:17.928Z,39.70
2022-10-13T20:54:20.582Z,40.72
2022-10-13T20:57:23.373Z,38.42
2022-10-13T21:00:26.318Z,37.20
2022-10-13T21:03:28.943Z,41.63
2022-10-13T21:06:31.677Z,43.93
2022-10-13T21:09:37.404Z,41.80
2022-10-13T21:12:39.961Z,37.25
2022-10-13T21:15:43.988Z,36.67
2022-10-13T21:18:51.628Z,39.27
2022-10-13T21:21:54.153Z,39.07
2022-10-13T21:24:56.689Z,36.60
2022-10-13T21:27:59.231Z,36.08
2022-10-13T21:31:07.056Z,36.42
2022-10-13T21:34:10.940Z,39.78
2022-10-13T21:37:13.453Z,35.87
2022-10-13T21:40:16.523Z,39.90
2022-10-13T21:43:19.511Z,40.15
2022-10-13T21:46:25.698Z,35.65
2022-10-13T21:49:28.665Z,35.53
2022-10-13T21:52:34.962Z,34.53
2022-10-13T21:55:37.634Z,33.88
2022-10-13T21:58:40.451Z,30.55
2022-10-13T22:01:43.419Z,34.88
2022-10-13T22:04:45.994Z,31.80
2022-10-13T22:07:48.607Z,32.17
2022-10-13T22:10:51.129Z,32.67
2022-10-13T22:13:53.641Z,30.98
2022-10-13T22:16:56.208Z,31.92
2022-10-13T22:19:58.793Z,33.53
2022-10-13T22:23:01.321Z,31.63
2022-10-13T22:26:04.359Z,36.60
2022-10-13T22:29:08.110Z,31.40
2022-10-13T22:32:10.758Z,30.08
2022-10-13T22:35:13.261Z,29.03
2022-10-13T22:38:15.893Z,30.90
2022-10-13T22:41:19.517Z,33.72
2022-10-13T22:44:22.219Z,30.15
2022-10-13T22:47:26.535Z,29.08
2022-10-13T22:50:30.752Z,31.20
2022-10-13T22:53:34.153Z,27.27
2022-10-13T22:56:36.671Z,28.38
2022-10-13T22:59:39.156Z,29.12
2022-10-13T23:02:41.720Z,29.15
2022-10-13T23:05:48.455Z,26.97
2022-10-13T23:08:51.702Z,25.57
2022-10-13T23:11:57.558Z,27.08
2022-10-13T23:15:02.264Z,29.87
2022-10-13T23:18:05.363Z,27.27
2022-10-13T23:21:09.967Z,26.97
2022-10-13T23:24:13.562Z,28.73
2022-10-13T23:27:16.110Z,27.77
2022-10-13T23:30:19.137Z,27.85
2022-10-13T23:33:21.591Z,26.95
2022-10-13T23:36:26.683Z,26.87
2022-10-13T23:39:29.795Z,27.97
2022-10-13T23:42:32.284Z,27.05
2022-10-13T23:45:34.828Z,25.90
2022-10-13T23:48:38.204Z,26.33
2022-10-13T23:51:43.025Z,25.43
2022-10-13T23:54:45.572Z,25.90
2022-10-13T23:57:48.263Z,27.00
